sensor_id;sensor_type;location;lat;lon;timestamp;temperature;humidity
69382;DHT22;56560;50.692;12.844;2023-04-06T00:00:33;1.30;72.10
69382;DHT22;56560;50.692;12.844;2023-04-06T00:02:59;1.40;73.00
69382;DHT22;56560;50.692;12.844;2023-04-06T00:05:25;1.40;73.50
69382;DHT22;56560;50.692;12.844;2023-04-06T00:07:51;1.40;72.80
69382;DHT22;56560;50.692;12.844;2023-04-06T00:10:18;1.40;72.90
69382;DHT22;56560;50.692;12.844;2023-04-06T00:12:44;1.50;72.90
69382;DHT22;56560;50.692;12.844;2023-04-06T00:15:10;1.50;72.40
69382;DHT22;56560;50.692;12.844;2023-04-06T00:17:36;1.50;71.60
69382;DHT22;56560;50.692;12.844;2023-04-06T00:20:02;1.50;71.10
69382;DHT22;56560;50.692;12.844;2023-04-06T00:22:28;1.50;71.80
69382;DHT22;56560;50.692;12.844;2023-04-06T00:24:54;1.50;72.20
69382;DHT22;56560;50.692;12.844;2023-04-06T00:27:20;1.50;71.80
69382;DHT22;56560;50.692;12.844;2023-04-06T00:29:45;1.50;72.30
69382;DHT22;56560;50.692;12.844;2023-04-06T00:32:11;1.50;73.30
69382;DHT22;56560;50.692;12.844;2023-04-06T00:34:37;1.50;73.30
69382;DHT22;56560;50.692;12.844;2023-04-06T00:37:03;1.50;73.20
69382;DHT22;56560;50.692;12.844;2023-04-06T00:39:29;1.60;72.40
69382;DHT22;56560;50.692;12.844;2023-04-06T00:41:55;1.60;72.20
69382;DHT22;56560;50.692;12.844;2023-04-06T00:44:22;1.60;72.50
69382;DHT22;56560;50.692;12.844;2023-04-06T00:46:48;1.60;72.00
69382;DHT22;56560;50.692;12.844;2023-04-06T00:49:16;1.60;72.20
69382;DHT22;56560;50.692;12.844;2023-04-06T00:51:42;1.60;71.40
69382;DHT22;56560;50.692;12.844;2023-04-06T00:54:08;1.60;71.50
69382;DHT22;56560;50.692;12.844;2023-04-06T00:56:34;1.60;72.00
69382;DHT22;56560;50.692;12.844;2023-04-06T00:59:00;1.60;72.60
69382;DHT22;56560;50.692;12.844;2023-04-06T01:01:36;1.60;72.50
69382;DHT22;56560;50.692;12.844;2023-04-06T01:04:02;1.60;72.00
69382;DHT22;56560;50.692;12.844;2023-04-06T01:06:28;1.70;71.10
69382;DHT22;56560;50.692;12.844;2023-04-06T01:08:54;1.70;72.30
69382;DHT22;56560;50.692;12.844;2023-04-06T01:11:23;1.70;72.40
69382;DHT22;56560;50.692;12.844;2023-04-06T01:13:49;1.70;73.20
69382;DHT22;56560;50.692;12.844;2023-04-06T01:16:15;1.70;73.60
69382;DHT22;56560;50.692;12.844;2023-04-06T01:18:41;1.70;73.90
69382;DHT22;56560;50.692;12.844;2023-04-06T01:21:08;1.70;74.30
69382;DHT22;56560;50.692;12.844;2023-04-06T01:23:34;1.70;73.30
69382;DHT22;56560;50.692;12.844;2023-04-06T01:26:02;1.70;73.80
69382;DHT22;56560;50.692;12.844;2023-04-06T01:28:28;1.70;73.50
69382;DHT22;56560;50.692;12.844;2023-04-06T01:30:54;1.70;73.10
69382;DHT22;56560;50.692;12.844;2023-04-06T01:33:20;1.80;73.70
69382;DHT22;56560;50.692;12.844;2023-04-06T01:35:46;1.80;73.10
69382;DHT22;56560;50.692;12.844;2023-04-06T01:38:12;1.80;73.60
69382;DHT22;56560;50.692;12.844;2023-04-06T01:40:37;1.70;73.10
69382;DHT22;56560;50.692;12.844;2023-04-06T01:43:03;1.70;73.20
69382;DHT22;56560;50.692;12.844;2023-04-06T01:45:29;1.70;73.70
69382;DHT22;56560;50.692;12.844;2023-04-06T01:47:55;1.80;73.60
69382;DHT22;56560;50.692;12.844;2023-04-06T01:50:21;1.80;74.00
69382;DHT22;56560;50.692;12.844;2023-04-06T01:52:46;1.80;74.10
69382;DHT22;56560;50.692;12.844;2023-04-06T01:55:12;1.80;74.10
69382;DHT22;56560;50.692;12.844;2023-04-06T01:57:38;1.80;74.00
69382;DHT22;56560;50.692;12.844;2023-04-06T02:00:04;1.80;74.00
69382;DHT22;56560;50.692;12.844;2023-04-06T02:02:30;1.70;74.20
69382;DHT22;56560;50.692;12.844;2023-04-06T02:04:56;1.70;74.10
69382;DHT22;56560;50.692;12.844;2023-04-06T02:07:22;1.80;73.70
69382;DHT22;56560;50.692;12.844;2023-04-06T02:09:47;1.80;73.70
69382;DHT22;56560;50.692;12.844;2023-04-06T02:12:13;1.80;73.60
69382;DHT22;56560;50.692;12.844;2023-04-06T02:14:39;1.70;73.90
69382;DHT22;56560;50.692;12.844;2023-04-06T02:17:05;1.70;74.00
69382;DHT22;56560;50.692;12.844;2023-04-06T02:19:30;1.80;73.70
69382;DHT22;56560;50.692;12.844;2023-04-06T02:21:56;1.80;73.40
69382;DHT22;56560;50.692;12.844;2023-04-06T02:24:22;1.80;74.20
69382;DHT22;56560;50.692;12.844;2023-04-06T02:26:48;1.80;74.50
69382;DHT22;56560;50.692;12.844;2023-04-06T02:29:13;1.80;73.80
69382;DHT22;56560;50.692;12.844;2023-04-06T02:31:39;1.80;74.50
69382;DHT22;56560;50.692;12.844;2023-04-06T02:34:05;1.70;74.10
69382;DHT22;56560;50.692;12.844;2023-04-06T02:36:31;1.70;74.30
69382;DHT22;56560;50.692;12.844;2023-04-06T02:38:56;1.70;74.30
69382;DHT22;56560;50.692;12.844;2023-04-06T02:41:22;1.70;74.10
69382;DHT22;56560;50.692;12.844;2023-04-06T02:43:48;1.70;74.30
69382;DHT22;56560;50.692;12.844;2023-04-06T02:46:13;1.70;73.20
69382;DHT22;56560;50.692;12.844;2023-04-06T02:48:39;1.70;74.40
69382;DHT22;56560;50.692;12.844;2023-04-06T02:51:05;1.70;74.00
69382;DHT22;56560;50.692;12.844;2023-04-06T02:53:31;1.60;74.20
69382;DHT22;56560;50.692;12.844;2023-04-06T02:55:57;1.60;74.70
69382;DHT22;56560;50.692;12.844;2023-04-06T02:58:22;1.60;75.40
69382;DHT22;56560;50.692;12.844;2023-04-06T03:00:48;1.60;75.00
69382;DHT22;56560;50.692;12.844;2023-04-06T03:03:14;1.60;74.40
69382;DHT22;56560;50.692;12.844;2023-04-06T03:05:39;1.50;75.30
69382;DHT22;56560;50.692;12.844;2023-04-06T03:08:05;1.50;74.80
69382;DHT22;56560;50.692;12.844;2023-04-06T03:10:31;1.50;74.40
69382;DHT22;56560;50.692;12.844;2023-04-06T03:12:56;1.40;75.10
69382;DHT22;56560;50.692;12.844;2023-04-06T03:15:22;1.40;75.00
69382;DHT22;56560;50.692;12.844;2023-04-06T03:17:47;1.30;75.40
69382;DHT22;56560;50.692;12.844;2023-04-06T03:20:13;1.30;76.00
69382;DHT22;56560;50.692;12.844;2023-04-06T03:22:39;1.20;76.50
69382;DHT22;56560;50.692;12.844;2023-04-06T03:25:05;1.20;75.90
69382;DHT22;56560;50.692;12.844;2023-04-06T03:27:31;1.10;75.10
69382;DHT22;56560;50.692;12.844;2023-04-06T03:29:56;1.10;74.70
69382;DHT22;56560;50.692;12.844;2023-04-06T03:32:22;1.00;76.10
69382;DHT22;56560;50.692;12.844;2023-04-06T03:34:48;1.00;76.20
69382;DHT22;56560;50.692;12.844;2023-04-06T03:37:13;1.00;76.30
69382;DHT22;56560;50.692;12.844;2023-04-06T03:39:39;0.90;76.60
69382;DHT22;56560;50.692;12.844;2023-04-06T03:42:05;0.80;78.90
69382;DHT22;56560;50.692;12.844;2023-04-06T03:44:31;0.80;77.20
69382;DHT22;56560;50.692;12.844;2023-04-06T03:46:57;0.70;76.90
69382;DHT22;56560;50.692;12.844;2023-04-06T03:49:22;0.70;76.50
69382;DHT22;56560;50.692;12.844;2023-04-06T03:51:48;0.70;76.40
69382;DHT22;56560;50.692;12.844;2023-04-06T03:54:14;0.70;76.50
69382;DHT22;56560;50.692;12.844;2023-04-06T03:56:39;0.60;76.70
69382;DHT22;56560;50.692;12.844;2023-04-06T03:59:05;0.60;75.90
69382;DHT22;56560;50.692;12.844;2023-04-06T04:01:31;0.50;76.40
69382;DHT22;56560;50.692;12.844;2023-04-06T04:03:57;0.60;76.70
69382;DHT22;56560;50.692;12.844;2023-04-06T04:06:22;0.50;76.40
69382;DHT22;56560;50.692;12.844;2023-04-06T04:08:48;0.50;76.90
69382;DHT22;56560;50.692;12.844;2023-04-06T04:11:14;0.40;77.20
69382;DHT22;56560;50.692;12.844;2023-04-06T04:13:41;0.40;77.40
69382;DHT22;56560;50.692;12.844;2023-04-06T04:16:06;0.40;78.70
69382;DHT22;56560;50.692;12.844;2023-04-06T04:18:32;0.40;77.90
69382;DHT22;56560;50.692;12.844;2023-04-06T04:20:58;0.40;78.00
69382;DHT22;56560;50.692;12.844;2023-04-06T04:23:23;0.40;79.10
69382;DHT22;56560;50.692;12.844;2023-04-06T04:25:49;0.40;78.60
69382;DHT22;56560;50.692;12.844;2023-04-06T04:28:16;0.40;77.80
69382;DHT22;56560;50.692;12.844;2023-04-06T04:30:42;0.30;78.30
69382;DHT22;56560;50.692;12.844;2023-04-06T04:33:07;0.30;78.20
69382;DHT22;56560;50.692;12.844;2023-04-06T04:35:33;0.30;78.20
69382;DHT22;56560;50.692;12.844;2023-04-06T04:37:59;0.40;78.80
69382;DHT22;56560;50.692;12.844;2023-04-06T04:40:24;0.30;78.30
69382;DHT22;56560;50.692;12.844;2023-04-06T04:42:50;0.30;79.00
69382;DHT22;56560;50.692;12.844;2023-04-06T04:45:16;0.40;78.90
69382;DHT22;56560;50.692;12.844;2023-04-06T04:47:42;0.30;77.80
69382;DHT22;56560;50.692;12.844;2023-04-06T04:50:08;0.30;78.20
69382;DHT22;56560;50.692;12.844;2023-04-06T04:52:34;0.30;78.20
69382;DHT22;56560;50.692;12.844;2023-04-06T04:54:59;0.30;77.20
69382;DHT22;56560;50.692;12.844;2023-04-06T04:57:25;0.30;78.90
69382;DHT22;56560;50.692;12.844;2023-04-06T04:59:51;0.30;77.50
69382;DHT22;56560;50.692;12.844;2023-04-06T05:02:17;0.30;78.70
69382;DHT22;56560;50.692;12.844;2023-04-06T05:04:43;0.30;81.40
69382;DHT22;56560;50.692;12.844;2023-04-06T05:07:09;0.30;78.70
69382;DHT22;56560;50.692;12.844;2023-04-06T05:09:35;0.30;77.90
69382;DHT22;56560;50.692;12.844;2023-04-06T05:12:01;0.30;78.90
69382;DHT22;56560;50.692;12.844;2023-04-06T05:14:27;0.20;78.70
69382;DHT22;56560;50.692;12.844;2023-04-06T05:16:53;0.30;79.50
69382;DHT22;56560;50.692;12.844;2023-04-06T05:19:20;0.30;79.30
69382;DHT22;56560;50.692;12.844;2023-04-06T05:21:45;0.40;79.50
69382;DHT22;56560;50.692;12.844;2023-04-06T05:24:11;0.50;78.60
69382;DHT22;56560;50.692;12.844;2023-04-06T05:26:37;0.60;78.20
69382;DHT22;56560;50.692;12.844;2023-04-06T05:29:02;0.70;78.10
69382;DHT22;56560;50.692;12.844;2023-04-06T05:31:29;0.80;78.10
69382;DHT22;56560;50.692;12.844;2023-04-06T05:33:55;1.00;77.40
69382;DHT22;56560;50.692;12.844;2023-04-06T05:36:21;1.20;76.90
69382;DHT22;56560;50.692;12.844;2023-04-06T05:38:47;1.30;76.50
69382;DHT22;56560;50.692;12.844;2023-04-06T05:41:13;1.40;76.40
69382;DHT22;56560;50.692;12.844;2023-04-06T05:43:38;1.50;75.50
69382;DHT22;56560;50.692;12.844;2023-04-06T05:46:04;1.60;75.60
69382;DHT22;56560;50.692;12.844;2023-04-06T05:48:30;1.80;74.50
69382;DHT22;56560;50.692;12.844;2023-04-06T05:50:56;1.90;73.50
69382;DHT22;56560;50.692;12.844;2023-04-06T05:53:21;2.00;73.10
69382;DHT22;56560;50.692;12.844;2023-04-06T05:55:47;2.10;72.80
69382;DHT22;56560;50.692;12.844;2023-04-06T05:58:13;2.20;72.40
69382;DHT22;56560;50.692;12.844;2023-04-06T06:00:39;2.30;71.90
69382;DHT22;56560;50.692;12.844;2023-04-06T06:03:04;2.40;71.10
69382;DHT22;56560;50.692;12.844;2023-04-06T06:05:31;2.60;70.00
69382;DHT22;56560;50.692;12.844;2023-04-06T06:07:57;2.80;69.00
69382;DHT22;56560;50.692;12.844;2023-04-06T06:10:22;2.90;68.50
69382;DHT22;56560;50.692;12.844;2023-04-06T06:12:48;3.00;67.70
69382;DHT22;56560;50.692;12.844;2023-04-06T06:15:14;3.10;67.10
69382;DHT22;56560;50.692;12.844;2023-04-06T06:17:40;3.20;67.10
69382;DHT22;56560;50.692;12.844;2023-04-06T06:20:07;3.20;66.50
69382;DHT22;56560;50.692;12.844;2023-04-06T06:22:32;3.30;66.30
69382;DHT22;56560;50.692;12.844;2023-04-06T06:24:58;3.40;66.30
69382;DHT22;56560;50.692;12.844;2023-04-06T06:27:24;3.50;65.70
69382;DHT22;56560;50.692;12.844;2023-04-06T06:29:50;3.70;65.80
69382;DHT22;56560;50.692;12.844;2023-04-06T06:32:15;3.90;65.20
69382;DHT22;56560;50.692;12.844;2023-04-06T06:34:41;4.10;65.00
69382;DHT22;56560;50.692;12.844;2023-04-06T06:37:07;4.10;63.80
69382;DHT22;56560;50.692;12.844;2023-04-06T06:39:32;4.10;63.60
69382;DHT22;56560;50.692;12.844;2023-04-06T06:41:58;4.20;63.60
69382;DHT22;56560;50.692;12.844;2023-04-06T06:44:27;4.40;62.70
69382;DHT22;56560;50.692;12.844;2023-04-06T06:46:53;4.60;62.70
69382;DHT22;56560;50.692;12.844;2023-04-06T06:49:19;4.80;60.50
69382;DHT22;56560;50.692;12.844;2023-04-06T06:51:45;5.10;60.30
69382;DHT22;56560;50.692;12.844;2023-04-06T06:54:16;5.30;59.20
69382;DHT22;56560;50.692;12.844;2023-04-06T06:56:42;5.50;57.30
69382;DHT22;56560;50.692;12.844;2023-04-06T06:59:07;5.70;54.00
69382;DHT22;56560;50.692;12.844;2023-04-06T07:01:34;5.90;52.50
69382;DHT22;56560;50.692;12.844;2023-04-06T07:04:00;5.90;52.30
69382;DHT22;56560;50.692;12.844;2023-04-06T07:06:26;6.00;51.70
69382;DHT22;56560;50.692;12.844;2023-04-06T07:08:54;6.10;50.30
69382;DHT22;56560;50.692;12.844;2023-04-06T07:11:33;6.10;49.80
69382;DHT22;56560;50.692;12.844;2023-04-06T07:13:58;6.20;49.70
69382;DHT22;56560;50.692;12.844;2023-04-06T07:16:24;6.40;48.60
69382;DHT22;56560;50.692;12.844;2023-04-06T07:18:50;6.50;48.30
69382;DHT22;56560;50.692;12.844;2023-04-06T07:21:16;6.70;49.10
69382;DHT22;56560;50.692;12.844;2023-04-06T07:23:42;6.90;47.40
69382;DHT22;56560;50.692;12.844;2023-04-06T07:26:07;7.10;46.90
69382;DHT22;56560;50.692;12.844;2023-04-06T07:28:33;7.20;47.20
69382;DHT22;56560;50.692;12.844;2023-04-06T07:30:59;7.30;45.80
69382;DHT22;56560;50.692;12.844;2023-04-06T07:33:24;7.40;45.20
69382;DHT22;56560;50.692;12.844;2023-04-06T07:35:55;7.60;45.20
69382;DHT22;56560;50.692;12.844;2023-04-06T07:38:20;7.80;44.00
69382;DHT22;56560;50.692;12.844;2023-04-06T07:40:46;7.90;43.40
69382;DHT22;56560;50.692;12.844;2023-04-06T07:43:12;8.00;43.70
69382;DHT22;56560;50.692;12.844;2023-04-06T07:45:37;8.10;44.00
69382;DHT22;56560;50.692;12.844;2023-04-06T07:48:03;8.30;43.40
69382;DHT22;56560;50.692;12.844;2023-04-06T07:50:29;8.40;42.30
69382;DHT22;56560;50.692;12.844;2023-04-06T07:52:55;8.40;42.90
69382;DHT22;56560;50.692;12.844;2023-04-06T07:55:20;8.40;40.70
69382;DHT22;56560;50.692;12.844;2023-04-06T07:57:46;8.40;40.80
69382;DHT22;56560;50.692;12.844;2023-04-06T08:00:13;8.20;39.30
69382;DHT22;56560;50.692;12.844;2023-04-06T08:02:39;8.10;39.30
69382;DHT22;56560;50.692;12.844;2023-04-06T08:05:05;8.00;40.00
69382;DHT22;56560;50.692;12.844;2023-04-06T08:07:31;8.10;40.30
69382;DHT22;56560;50.692;12.844;2023-04-06T08:09:56;8.10;39.20
69382;DHT22;56560;50.692;12.844;2023-04-06T08:12:22;8.00;38.60
69382;DHT22;56560;50.692;12.844;2023-04-06T08:14:48;7.70;38.10
69382;DHT22;56560;50.692;12.844;2023-04-06T08:17:13;7.70;38.60
69382;DHT22;56560;50.692;12.844;2023-04-06T08:19:42;7.60;38.80
69382;DHT22;56560;50.692;12.844;2023-04-06T08:22:10;7.70;38.60
69382;DHT22;56560;50.692;12.844;2023-04-06T08:24:36;7.90;39.40
69382;DHT22;56560;50.692;12.844;2023-04-06T08:27:01;8.10;39.40
69382;DHT22;56560;50.692;12.844;2023-04-06T08:29:27;8.20;38.30
69382;DHT22;56560;50.692;12.844;2023-04-06T08:31:53;8.30;39.30
69382;DHT22;56560;50.692;12.844;2023-04-06T08:34:18;8.30;38.40
69382;DHT22;56560;50.692;12.844;2023-04-06T08:36:44;8.30;38.20
69382;DHT22;56560;50.692;12.844;2023-04-06T08:39:11;8.50;38.60
69382;DHT22;56560;50.692;12.844;2023-04-06T08:41:37;8.80;36.10
69382;DHT22;56560;50.692;12.844;2023-04-06T08:44:02;8.90;36.80
69382;DHT22;56560;50.692;12.844;2023-04-06T08:46:30;8.70;37.90
69382;DHT22;56560;50.692;12.844;2023-04-06T08:48:57;8.80;36.60
69382;DHT22;56560;50.692;12.844;2023-04-06T08:51:24;8.90;36.00
69382;DHT22;56560;50.692;12.844;2023-04-06T08:53:57;9.20;36.30
69382;DHT22;56560;50.692;12.844;2023-04-06T08:56:24;9.80;35.70
69382;DHT22;56560;50.692;12.844;2023-04-06T08:58:52;9.80;33.80
69382;DHT22;56560;50.692;12.844;2023-04-06T09:01:21;9.60;33.20
69382;DHT22;56560;50.692;12.844;2023-04-06T09:03:49;9.40;33.80
69382;DHT22;56560;50.692;12.844;2023-04-06T09:06:15;9.50;35.40
69382;DHT22;56560;50.692;12.844;2023-04-06T09:08:41;10.00;34.60
69382;DHT22;56560;50.692;12.844;2023-04-06T09:11:07;10.40;35.20
69382;DHT22;56560;50.692;12.844;2023-04-06T09:13:54;10.10;33.00
69382;DHT22;56560;50.692;12.844;2023-04-06T09:16:20;9.40;34.10
69382;DHT22;56560;50.692;12.844;2023-04-06T09:18:47;8.80;34.90
69382;DHT22;56560;50.692;12.844;2023-04-06T09:21:16;8.80;36.30
69382;DHT22;56560;50.692;12.844;2023-04-06T09:23:41;9.20;35.70
69382;DHT22;56560;50.692;12.844;2023-04-06T09:28:57;10.30;34.40
69382;DHT22;56560;50.692;12.844;2023-04-06T09:31:27;10.60;33.70
69382;DHT22;56560;50.692;12.844;2023-04-06T09:33:53;10.80;32.40
69382;DHT22;56560;50.692;12.844;2023-04-06T09:36:20;11.10;33.10
69382;DHT22;56560;50.692;12.844;2023-04-06T09:38:58;11.40;33.20
69382;DHT22;56560;50.692;12.844;2023-04-06T09:41:26;11.80;31.80
69382;DHT22;56560;50.692;12.844;2023-04-06T09:44:10;12.00;31.50
69382;DHT22;56560;50.692;12.844;2023-04-06T09:46:44;12.10;31.20
69382;DHT22;56560;50.692;12.844;2023-04-06T09:49:11;11.40;32.50
69382;DHT22;56560;50.692;12.844;2023-04-06T09:51:47;11.20;32.00
69382;DHT22;56560;50.692;12.844;2023-04-06T09:54:22;10.90;33.50
69382;DHT22;56560;50.692;12.844;2023-04-06T10:01:58;11.80;31.10
69382;DHT22;56560;50.692;12.844;2023-04-06T10:04:40;11.80;31.30
69382;DHT22;56560;50.692;12.844;2023-04-06T10:07:09;12.00;32.40
69382;DHT22;56560;50.692;12.844;2023-04-06T10:09:37;12.00;32.00
69382;DHT22;56560;50.692;12.844;2023-04-06T10:12:05;11.60;32.20
69382;DHT22;56560;50.692;12.844;2023-04-06T10:14:34;11.30;32.90
69382;DHT22;56560;50.692;12.844;2023-04-06T10:17:12;11.40;32.20
69382;DHT22;56560;50.692;12.844;2023-04-06T10:19:59;11.30;32.30
69382;DHT22;56560;50.692;12.844;2023-04-06T10:22:36;11.00;32.10
69382;DHT22;56560;50.692;12.844;2023-04-06T10:25:04;11.10;34.20
69382;DHT22;56560;50.692;12.844;2023-04-06T10:27:31;11.20;32.90
69382;DHT22;56560;50.692;12.844;2023-04-06T10:30:05;11.40;32.30
69382;DHT22;56560;50.692;12.844;2023-04-06T10:32:33;11.50;32.30
69382;DHT22;56560;50.692;12.844;2023-04-06T10:35:10;11.70;32.00
69382;DHT22;56560;50.692;12.844;2023-04-06T10:37:51;11.80;31.40
69382;DHT22;56560;50.692;12.844;2023-04-06T10:40:24;11.80;31.40
69382;DHT22;56560;50.692;12.844;2023-04-06T10:43:06;11.70;31.10
69382;DHT22;56560;50.692;12.844;2023-04-06T10:45:32;11.70;31.40
69382;DHT22;56560;50.692;12.844;2023-04-06T10:47:57;12.00;32.50
69382;DHT22;56560;50.692;12.844;2023-04-06T10:50:23;12.10;30.90
69382;DHT22;56560;50.692;12.844;2023-04-06T10:53:02;11.80;31.10
69382;DHT22;56560;50.692;12.844;2023-04-06T10:55:29;11.80;31.40
69382;DHT22;56560;50.692;12.844;2023-04-06T10:57:55;11.90;31.40
69382;DHT22;56560;50.692;12.844;2023-04-06T11:00:22;12.00;30.80
69382;DHT22;56560;50.692;12.844;2023-04-06T11:02:48;12.10;30.40
69382;DHT22;56560;50.692;12.844;2023-04-06T11:05:15;12.40;30.80
69382;DHT22;56560;50.692;12.844;2023-04-06T11:07:41;12.40;29.90
69382;DHT22;56560;50.692;12.844;2023-04-06T11:10:25;12.50;30.50
69382;DHT22;56560;50.692;12.844;2023-04-06T11:21:19;12.10;31.20
69382;DHT22;56560;50.692;12.844;2023-04-06T11:23:46;12.20;31.10
69382;DHT22;56560;50.692;12.844;2023-04-06T11:26:18;12.10;31.00
69382;DHT22;56560;50.692;12.844;2023-04-06T11:28:48;11.80;30.60
69382;DHT22;56560;50.692;12.844;2023-04-06T11:31:14;11.50;31.50
69382;DHT22;56560;50.692;12.844;2023-04-06T11:33:40;10.90;32.00
69382;DHT22;56560;50.692;12.844;2023-04-06T11:36:06;10.50;32.60
69382;DHT22;56560;50.692;12.844;2023-04-06T11:38:33;10.60;32.80
69382;DHT22;56560;50.692;12.844;2023-04-06T11:40:58;11.20;32.30
69382;DHT22;56560;50.692;12.844;2023-04-06T11:43:28;12.80;31.50
69382;DHT22;56560;50.692;12.844;2023-04-06T11:46:03;14.00;30.50
69382;DHT22;56560;50.692;12.844;2023-04-06T11:48:29;14.80;30.30
69382;DHT22;56560;50.692;12.844;2023-04-06T11:50:59;15.30;28.40
69382;DHT22;56560;50.692;12.844;2023-04-06T11:53:29;16.40;28.00
69382;DHT22;56560;50.692;12.844;2023-04-06T11:55:55;16.60;26.50
69382;DHT22;56560;50.692;12.844;2023-04-06T11:58:21;16.60;27.20
69382;DHT22;56560;50.692;12.844;2023-04-06T12:00:47;17.20;26.80
69382;DHT22;56560;50.692;12.844;2023-04-06T12:03:13;17.80;26.00
69382;DHT22;56560;50.692;12.844;2023-04-06T12:05:39;18.40;25.00
69382;DHT22;56560;50.692;12.844;2023-04-06T12:08:04;18.60;26.00
69382;DHT22;56560;50.692;12.844;2023-04-06T12:10:30;19.10;25.50
69382;DHT22;56560;50.692;12.844;2023-04-06T12:12:56;19.70;25.80
69382;DHT22;56560;50.692;12.844;2023-04-06T12:15:22;19.80;24.50
69382;DHT22;56560;50.692;12.844;2023-04-06T12:17:48;20.30;25.20
69382;DHT22;56560;50.692;12.844;2023-04-06T12:20:15;20.60;24.40
69382;DHT22;56560;50.692;12.844;2023-04-06T12:22:40;20.80;24.80
69382;DHT22;56560;50.692;12.844;2023-04-06T12:25:06;21.20;24.10
69382;DHT22;56560;50.692;12.844;2023-04-06T12:27:32;21.40;23.80
69382;DHT22;56560;50.692;12.844;2023-04-06T12:29:58;21.20;24.80
69382;DHT22;56560;50.692;12.844;2023-04-06T12:32:24;21.40;24.10
69382;DHT22;56560;50.692;12.844;2023-04-06T12:34:52;21.70;23.60
69382;DHT22;56560;50.692;12.844;2023-04-06T12:37:18;21.90;23.00
69382;DHT22;56560;50.692;12.844;2023-04-06T12:39:44;21.70;22.50
69382;DHT22;56560;50.692;12.844;2023-04-06T12:42:11;22.00;22.80
69382;DHT22;56560;50.692;12.844;2023-04-06T12:44:38;21.50;22.50
69382;DHT22;56560;50.692;12.844;2023-04-06T12:47:03;21.30;23.20
69382;DHT22;56560;50.692;12.844;2023-04-06T12:49:32;22.00;22.20
69382;DHT22;56560;50.692;12.844;2023-04-06T12:51:58;21.80;22.90
69382;DHT22;56560;50.692;12.844;2023-04-06T12:54:24;21.60;23.20
69382;DHT22;56560;50.692;12.844;2023-04-06T12:56:52;21.60;23.30
69382;DHT22;56560;50.692;12.844;2023-04-06T12:59:20;22.10;22.50
69382;DHT22;56560;50.692;12.844;2023-04-06T13:02:17;22.40;22.20
69382;DHT22;56560;50.692;12.844;2023-04-06T13:04:52;23.00;22.70
69382;DHT22;56560;50.692;12.844;2023-04-06T13:07:17;22.90;22.10
69382;DHT22;56560;50.692;12.844;2023-04-06T13:09:43;22.50;21.80
69382;DHT22;56560;50.692;12.844;2023-04-06T13:12:11;22.40;22.70
69382;DHT22;56560;50.692;12.844;2023-04-06T13:14:36;22.80;22.60
69382;DHT22;56560;50.692;12.844;2023-04-06T13:17:06;23.40;22.60
69382;DHT22;56560;50.692;12.844;2023-04-06T13:19:32;23.60;21.90
69382;DHT22;56560;50.692;12.844;2023-04-06T13:22:00;23.50;21.70
69382;DHT22;56560;50.692;12.844;2023-04-06T13:24:28;23.70;21.80
69382;DHT22;56560;50.692;12.844;2023-04-06T13:26:54;23.90;20.90
69382;DHT22;56560;50.692;12.844;2023-04-06T13:29:20;24.20;22.10
69382;DHT22;56560;50.692;12.844;2023-04-06T13:31:51;24.40;20.80
69382;DHT22;56560;50.692;12.844;2023-04-06T13:34:27;24.50;21.30
69382;DHT22;56560;50.692;12.844;2023-04-06T13:36:58;23.60;21.60
69382;DHT22;56560;50.692;12.844;2023-04-06T13:39:23;23.10;21.80
69382;DHT22;56560;50.692;12.844;2023-04-06T13:41:49;22.90;22.60
69382;DHT22;56560;50.692;12.844;2023-04-06T13:44:15;21.90;22.30
69382;DHT22;56560;50.692;12.844;2023-04-06T13:46:40;22.30;21.80
69382;DHT22;56560;50.692;12.844;2023-04-06T13:49:06;22.30;21.80
69382;DHT22;56560;50.692;12.844;2023-04-06T13:51:32;22.30;22.10
69382;DHT22;56560;50.692;12.844;2023-04-06T13:53:57;22.00;22.10
69382;DHT22;56560;50.692;12.844;2023-04-06T13:56:23;22.50;22.50
69382;DHT22;56560;50.692;12.844;2023-04-06T13:58:49;22.80;22.30
69382;DHT22;56560;50.692;12.844;2023-04-06T14:01:14;22.50;22.10
69382;DHT22;56560;50.692;12.844;2023-04-06T14:03:40;21.60;21.80
69382;DHT22;56560;50.692;12.844;2023-04-06T14:06:11;19.90;22.70
69382;DHT22;56560;50.692;12.844;2023-04-06T14:08:37;19.50;23.90
69382;DHT22;56560;50.692;12.844;2023-04-06T14:11:03;20.60;24.00
69382;DHT22;56560;50.692;12.844;2023-04-06T14:13:28;21.60;23.40
69382;DHT22;56560;50.692;12.844;2023-04-06T14:15:54;21.90;22.40
69382;DHT22;56560;50.692;12.844;2023-04-06T14:18:22;22.60;22.80
69382;DHT22;56560;50.692;12.844;2023-04-06T14:20:55;23.00;23.00
69382;DHT22;56560;50.692;12.844;2023-04-06T14:23:21;23.80;21.90
69382;DHT22;56560;50.692;12.844;2023-04-06T14:25:47;24.20;21.10
69382;DHT22;56560;50.692;12.844;2023-04-06T14:28:15;24.20;21.20
69382;DHT22;56560;50.692;12.844;2023-04-06T14:30:41;24.30;20.80
69382;DHT22;56560;50.692;12.844;2023-04-06T14:33:07;24.70;20.80
69382;DHT22;56560;50.692;12.844;2023-04-06T14:35:33;24.90;20.90
69382;DHT22;56560;50.692;12.844;2023-04-06T14:37:59;25.20;20.40
69382;DHT22;56560;50.692;12.844;2023-04-06T14:40:25;24.80;20.60
69382;DHT22;56560;50.692;12.844;2023-04-06T14:42:50;25.00;20.80
69382;DHT22;56560;50.692;12.844;2023-04-06T14:45:17;25.00;20.40
69382;DHT22;56560;50.692;12.844;2023-04-06T14:47:44;24.80;21.10
69382;DHT22;56560;50.692;12.844;2023-04-06T14:50:10;24.60;20.90
69382;DHT22;56560;50.692;12.844;2023-04-06T14:52:36;24.60;20.80
69382;DHT22;56560;50.692;12.844;2023-04-06T14:55:02;24.90;20.60
69382;DHT22;56560;50.692;12.844;2023-04-06T14:57:29;25.00;20.90
69382;DHT22;56560;50.692;12.844;2023-04-06T14:59:56;25.20;20.40
69382;DHT22;56560;50.692;12.844;2023-04-06T15:02:22;25.10;20.60
69382;DHT22;56560;50.692;12.844;2023-04-06T15:04:47;25.30;20.90
69382;DHT22;56560;50.692;12.844;2023-04-06T15:07:13;25.70;20.10
69382;DHT22;56560;50.692;12.844;2023-04-06T15:09:38;25.70;19.50
69382;DHT22;56560;50.692;12.844;2023-04-06T15:12:04;25.60;19.50
69382;DHT22;56560;50.692;12.844;2023-04-06T15:14:30;25.80;19.90
69382;DHT22;56560;50.692;12.844;2023-04-06T15:16:56;26.20;19.20
69382;DHT22;56560;50.692;12.844;2023-04-06T15:19:22;26.20;19.20
69382;DHT22;56560;50.692;12.844;2023-04-06T15:21:47;26.30;19.30
69382;DHT22;56560;50.692;12.844;2023-04-06T15:24:13;26.60;19.30
69382;DHT22;56560;50.692;12.844;2023-04-06T15:26:38;26.90;19.00
69382;DHT22;56560;50.692;12.844;2023-04-06T15:29:04;27.00;18.80
69382;DHT22;56560;50.692;12.844;2023-04-06T15:31:30;27.00;19.20
69382;DHT22;56560;50.692;12.844;2023-04-06T15:33:57;26.30;18.60
69382;DHT22;56560;50.692;12.844;2023-04-06T15:36:29;26.00;19.40
69382;DHT22;56560;50.692;12.844;2023-04-06T15:38:58;25.80;19.20